Time;durP1;ratioP1;P1;durP2;ratioP2;P2;SDS_P1;SDS_P2;PMS_P1;PMS_P2;Temp;Humidity;BMP_temperature;BMP_pressure;BME280_temperature;BME280_humidity;BME280_pressure;Samples;Min_cycle;Max_cycle;Signal;HPM_P1;HPM_P2
2023/06/21 00:00:25;;;;;;;10.13;6.22;;;;;;;;;;4993978;28;20011;-78
2023/06/21 00:02:51;;;;;;;12.48;6.93;;;;;;;;;;5001053;28;20359;-78
2023/06/21 00:05:17;;;;;;;10.50;6.30;;;;;;;;;;5007011;28;20080;-78
2023/06/21 00:07:43;;;;;;;9.50;5.57;;;;;;;;;;5009319;28;20594;-78
2023/06/21 00:10:10;;;;;;;9.90;5.85;;;;;;;;;;5000516;28;20061;-79
2023/06/21 00:12:36;;;;;;;9.45;5.63;;;;;;;;;;5004022;28;20061;-78
2023/06/21 00:15:02;;;;;;;8.43;5.65;;;;;;;;;;4998008;28;20037;-78
2023/06/21 00:17:28;;;;;;;9.50;5.57;;;;;;;;;;5009333;28;20041;-77
2023/06/21 00:19:55;;;;;;;10.93;6.15;;;;;;;;;;5001987;28;20477;-78
2023/06/21 00:22:24;;;;;;;12.75;5.72;;;;;;;;;;4998997;28;20081;-78
2023/06/21 00:24:51;;;;;;;9.90;6.00;;;;;;;;;;4997377;28;20169;-78
2023/06/21 00:27:17;;;;;;;10.18;6.15;;;;;;;;;;5005072;28;20040;-78
2023/06/21 00:29:43;;;;;;;7.90;5.20;;;;;;;;;;5006751;28;20062;-78
2023/06/21 00:32:10;;;;;;;9.85;6.38;;;;;;;;;;4993571;28;20536;-78
2023/06/21 00:34:36;;;;;;;8.27;5.82;;;;;;;;;;4997093;28;20041;-78
2023/06/21 00:37:05;;;;;;;8.30;5.22;;;;;;;;;;4975558;28;20022;-77
2023/06/21 00:39:31;;;;;;;9.73;6.03;;;;;;;;;;4995724;28;20052;-78
2023/06/21 00:41:57;;;;;;;10.88;6.05;;;;;;;;;;4995250;28;20022;-78
2023/06/21 00:44:23;;;;;;;10.35;6.03;;;;;;;;;;5008600;28;20489;-77
2023/06/21 00:46:50;;;;;;;7.65;5.70;;;;;;;;;;5001135;28;20117;-78
2023/06/21 00:49:16;;;;;;;8.02;5.55;;;;;;;;;;5007708;28;20014;-78
2023/06/21 00:51:42;;;;;;;8.90;5.50;;;;;;;;;;4994837;28;20397;-77
2023/06/21 00:54:15;;;;;;;9.90;6.38;;;;;;;;;;4991725;28;20061;-76
2023/06/21 00:56:41;;;;;;;11.00;6.68;;;;;;;;;;5006001;28;20066;-76
2023/06/21 00:59:09;;;;;;;9.55;5.70;;;;;;;;;;5008245;28;20057;-76
2023/06/21 01:01:36;;;;;;;10.50;5.53;;;;;;;;;;4996324;28;20108;-77
2023/06/21 01:04:02;;;;;;;8.95;5.95;;;;;;;;;;5004041;28;20057;-76
2023/06/21 01:06:34;;;;;;;10.50;6.22;;;;;;;;;;5004667;28;20053;-76
2023/06/21 01:09:03;;;;;;;9.85;6.22;;;;;;;;;;5003050;28;20033;-77
2023/06/21 01:11:31;;;;;;;11.32;6.15;;;;;;;;;;4999222;28;20382;-76
2023/06/21 01:14:18;;;;;;;9.95;6.28;;;;;;;;;;5005859;28;20057;-76
2023/06/21 01:16:45;;;;;;;8.25;5.72;;;;;;;;;;4990947;28;20667;-76
2023/06/21 01:19:33;;;;;;;8.32;5.45;;;;;;;;;;4995073;28;20029;-76
2023/06/21 01:22:07;;;;;;;11.57;6.00;;;;;;;;;;5003398;28;20045;-76
2023/06/21 01:24:33;;;;;;;8.73;5.72;;;;;;;;;;4995549;28;20034;-76
2023/06/21 01:27:06;;;;;;;8.82;5.50;;;;;;;;;;4999402;28;20108;-76
2023/06/21 01:29:33;;;;;;;10.10;5.97;;;;;;;;;;5006572;28;20030;-76
2023/06/21 01:32:00;;;;;;;10.20;6.03;;;;;;;;;;5000790;28;20045;-77
2023/06/21 01:34:27;;;;;;;10.15;5.75;;;;;;;;;;4993884;28;20117;-76
2023/06/21 01:36:55;;;;;;;9.65;5.32;;;;;;;;;;5000740;28;20080;-77
2023/06/21 01:39:26;;;;;;;7.60;5.47;;;;;;;;;;5007466;28;20018;-76
2023/06/21 01:41:52;;;;;;;7.38;5.15;;;;;;;;;;4995773;28;20397;-76
2023/06/21 01:44:18;;;;;;;10.02;6.05;;;;;;;;;;5004714;28;20022;-77
2023/06/21 01:46:45;;;;;;;10.02;6.38;;;;;;;;;;5005098;28;20401;-76
2023/06/21 01:49:12;;;;;;;9.50;6.13;;;;;;;;;;5007302;28;20114;-76
2023/06/21 01:51:39;;;;;;;8.68;5.43;;;;;;;;;;4999035;28;20071;-76
2023/06/21 01:54:05;;;;;;;8.85;6.00;;;;;;;;;;4996571;28;20038;-76
2023/06/21 01:56:32;;;;;;;10.23;6.18;;;;;;;;;;4989036;28;20397;-77
2023/06/21 01:58:59;;;;;;;11.63;6.35;;;;;;;;;;5009715;28;20036;-76
2023/06/21 02:01:27;;;;;;;8.85;6.22;;;;;;;;;;5004931;28;20022;-76
2023/06/21 02:03:55;;;;;;;15.98;5.68;;;;;;;;;;4997828;28;20054;-75
2023/06/21 02:06:26;;;;;;;9.25;6.03;;;;;;;;;;5005774;28;20058;-75
2023/06/21 02:08:52;;;;;;;8.68;5.80;;;;;;;;;;5010920;28;20068;-76
2023/06/21 02:11:19;;;;;;;9.32;5.82;;;;;;;;;;5007408;28;20161;-76
2023/06/21 02:13:48;;;;;;;8.60;5.50;;;;;;;;;;4992652;28;20022;-76
2023/06/21 02:16:14;;;;;;;8.68;5.82;;;;;;;;;;5002889;28;20045;-75
2023/06/21 02:18:41;;;;;;;9.55;5.50;;;;;;;;;;5008363;28;20172;-76
2023/06/21 02:21:08;;;;;;;8.30;5.65;;;;;;;;;;5009655;28;20033;-75
2023/06/21 02:23:34;;;;;;;8.48;5.45;;;;;;;;;;4997392;28;20026;-76
2023/06/21 02:26:00;;;;;;;9.00;5.90;;;;;;;;;;5002955;28;20030;-76
2023/06/21 02:28:26;;;;;;;9.27;5.82;;;;;;;;;;5011365;28;20100;-76
2023/06/21 02:30:52;;;;;;;10.15;6.22;;;;;;;;;;5008632;28;20050;-76
2023/06/21 02:33:18;;;;;;;10.07;6.07;;;;;;;;;;4995646;28;20041;-76
2023/06/21 02:35:44;;;;;;;9.07;6.03;;;;;;;;;;5002345;28;20026;-76
2023/06/21 02:38:10;;;;;;;10.73;6.32;;;;;;;;;;5002203;28;20096;-76
2023/06/21 02:40:36;;;;;;;10.10;6.05;;;;;;;;;;5009858;28;20018;-76
2023/06/21 02:43:01;;;;;;;9.00;6.25;;;;;;;;;;4982736;28;20283;-77
2023/06/21 02:45:27;;;;;;;9.00;5.70;;;;;;;;;;5001349;28;20014;-76
2023/06/21 02:47:53;;;;;;;9.63;6.15;;;;;;;;;;5001113;28;20629;-77
2023/06/21 02:50:19;;;;;;;8.05;4.93;;;;;;;;;;5009986;28;20517;-77
2023/06/21 02:52:45;;;;;;;9.45;5.82;;;;;;;;;;5008991;28;20026;-76
2023/06/21 02:55:11;;;;;;;8.57;5.90;;;;;;;;;;4994277;28;20038;-77
2023/06/21 02:57:37;;;;;;;9.02;5.90;;;;;;;;;;4998016;28;20026;-77
2023/06/21 03:00:18;;;;;;;8.48;5.50;;;;;;;;;;5003046;28;20133;-77
2023/06/21 03:02:44;;;;;;;9.15;5.43;;;;;;;;;;4998473;28;20068;-77
2023/06/21 03:05:17;;;;;;;7.93;5.65;;;;;;;;;;4998891;28;20050;-77
2023/06/21 03:07:44;;;;;;;8.95;5.70;;;;;;;;;;5002075;28;20026;-77
2023/06/21 03:10:19;;;;;;;8.73;5.63;;;;;;;;;;4996182;28;20135;-77
2023/06/21 03:12:46;;;;;;;7.88;6.00;;;;;;;;;;5003452;28;20032;-77
2023/06/21 03:15:12;;;;;;;8.50;5.63;;;;;;;;;;4997833;28;20041;-76
2023/06/21 03:17:38;;;;;;;7.40;5.10;;;;;;;;;;4992253;28;20022;-76
2023/06/21 03:20:08;;;;;;;9.38;5.90;;;;;;;;;;5009738;28;20121;-76
2023/06/21 03:22:34;;;;;;;9.23;5.72;;;;;;;;;;5004342;28;20029;-76
2023/06/21 03:25:00;;;;;;;8.95;5.65;;;;;;;;;;4995127;28;20113;-75
2023/06/21 03:27:27;;;;;;;9.02;5.05;;;;;;;;;;4997958;28;20377;-76
2023/06/21 03:29:52;;;;;;;10.35;5.80;;;;;;;;;;5001768;28;20029;-75
2023/06/21 03:32:19;;;;;;;9.27;5.07;;;;;;;;;;5001802;28;20232;-75
2023/06/21 03:34:45;;;;;;;9.00;5.88;;;;;;;;;;4995723;28;20030;-75
2023/06/21 03:37:11;;;;;;;9.45;6.18;;;;;;;;;;4999683;28;20080;-75
2023/06/21 03:40:32;;;;;;;7.57;4.88;;;;;;;;;;4995873;28;20030;-74
2023/06/21 03:42:56;;;;;;;9.98;6.15;;;;;;;;;;4974612;28;20029;-74
2023/06/21 03:45:22;;;;;;;10.07;6.45;;;;;;;;;;5006502;28;20500;-74
2023/06/21 03:47:48;;;;;;;9.18;5.72;;;;;;;;;;5009214;28;20080;-74
2023/06/21 03:50:14;;;;;;;6.97;4.90;;;;;;;;;;4997531;28;20034;-74
2023/06/21 03:52:40;;;;;;;9.88;5.53;;;;;;;;;;5008776;28;20034;-74
2023/06/21 03:55:07;;;;;;;8.85;5.90;;;;;;;;;;5006791;28;20038;-74
2023/06/21 03:57:33;;;;;;;9.10;5.93;;;;;;;;;;5003829;28;20054;-75
2023/06/21 03:59:59;;;;;;;10.77;6.65;;;;;;;;;;5000195;28;20068;-75
2023/06/21 04:02:25;;;;;;;11.82;6.15;;;;;;;;;;5001483;28;20034;-75
2023/06/21 04:04:52;;;;;;;8.35;5.68;;;;;;;;;;4999573;28;20199;-75
2023/06/21 04:07:19;;;;;;;6.97;5.07;;;;;;;;;;4997429;28;20113;-74
2023/06/21 04:09:45;;;;;;;7.80;5.28;;;;;;;;;;4996638;28;20036;-75
2023/06/21 04:12:11;;;;;;;9.85;6.28;;;;;;;;;;4999681;28;20057;-74
2023/06/21 04:14:38;;;;;;;8.82;6.20;;;;;;;;;;5000085;28;20022;-75
2023/06/21 04:17:04;;;;;;;8.98;5.68;;;;;;;;;;5004799;28;20044;-75
2023/06/21 04:19:30;;;;;;;9.82;5.70;;;;;;;;;;5007920;28;20030;-75
2023/06/21 04:21:56;;;;;;;10.30;6.95;;;;;;;;;;4998554;28;20080;-75
2023/06/21 04:24:22;;;;;;;9.05;6.05;;;;;;;;;;4994884;28;20546;-75
2023/06/21 04:26:48;;;;;;;7.18;5.53;;;;;;;;;;4994603;28;20531;-75
2023/06/21 04:29:16;;;;;;;8.32;5.53;;;;;;;;;;5007133;28;20014;-75
2023/06/21 04:31:42;;;;;;;9.88;5.75;;;;;;;;;;4996041;28;20030;-74
2023/06/21 04:34:08;;;;;;;8.82;5.53;;;;;;;;;;5001826;28;20087;-74
2023/06/21 04:36:35;;;;;;;8.65;5.82;;;;;;;;;;5001129;28;20022;-75
2023/06/21 04:39:02;;;;;;;9.20;5.97;;;;;;;;;;5004403;28;20018;-75
2023/06/21 04:41:28;;;;;;;8.80;5.38;;;;;;;;;;4999120;28;20178;-74
2023/06/21 04:43:54;;;;;;;8.95;6.25;;;;;;;;;;5012017;28;20097;-74
2023/06/21 04:46:21;;;;;;;10.88;6.60;;;;;;;;;;5010283;28;20026;-75
2023/06/21 04:48:48;;;;;;;9.73;5.85;;;;;;;;;;5003757;28;20032;-74
2023/06/21 04:51:15;;;;;;;12.27;8.00;;;;;;;;;;5001861;28;20036;-74
2023/06/21 04:53:44;;;;;;;11.73;7.05;;;;;;;;;;4999195;28;20083;-76
2023/06/21 04:56:12;;;;;;;11.70;7.75;;;;;;;;;;4996858;28;20169;-76
2023/06/21 04:58:39;;;;;;;8.50;6.07;;;;;;;;;;4998737;28;20033;-76
2023/06/21 05:01:05;;;;;;;11.77;7.32;;;;;;;;;;5008726;28;20393;-76
2023/06/21 05:03:32;;;;;;;12.90;8.45;;;;;;;;;;5020569;28;20485;-78
2023/06/21 05:05:59;;;;;;;16.25;9.20;;;;;;;;;;4993027;28;20366;-77
2023/06/21 05:08:25;;;;;;;9.32;6.32;;;;;;;;;;5002329;28;20034;-76
2023/06/21 05:10:51;;;;;;;10.63;6.25;;;;;;;;;;4988425;28;20463;-76
2023/06/21 05:13:17;;;;;;;9.73;6.18;;;;;;;;;;4978337;28;20029;-79
2023/06/21 05:15:43;;;;;;;9.57;6.55;;;;;;;;;;5005742;28;20034;-79
2023/06/21 05:18:09;;;;;;;12.85;7.32;;;;;;;;;;4998000;28;20033;-79
2023/06/21 05:20:35;;;;;;;13.55;6.32;;;;;;;;;;4998695;28;20030;-79
2023/06/21 05:23:01;;;;;;;12.63;7.03;;;;;;;;;;5008036;28;20030;-79
2023/06/21 05:25:27;;;;;;;13.02;6.43;;;;;;;;;;5007874;28;20030;-79
2023/06/21 05:27:53;;;;;;;10.35;6.97;;;;;;;;;;5007594;28;20018;-79
2023/06/21 05:30:19;;;;;;;13.20;7.57;;;;;;;;;;5007778;28;20033;-80
2023/06/21 05:32:46;;;;;;;10.65;7.07;;;;;;;;;;4992172;28;20037;-79
2023/06/21 05:35:12;;;;;;;17.88;9.25;;;;;;;;;;5006595;28;20112;-79
2023/06/21 05:37:38;;;;;;;10.15;6.80;;;;;;;;;;5011668;28;20068;-79
2023/06/21 05:40:08;;;;;;;12.23;5.72;;;;;;;;;;5011165;28;20030;-79
2023/06/21 05:42:34;;;;;;;12.93;8.20;;;;;;;;;;5006594;28;20113;-79
2023/06/21 05:45:00;;;;;;;12.98;7.30;;;;;;;;;;5010780;28;20482;-79
2023/06/21 05:47:26;;;;;;;13.43;7.85;;;;;;;;;;5008254;28;20026;-79
2023/06/21 05:49:53;;;;;;;11.63;7.47;;;;;;;;;;4995859;28;20038;-80
2023/06/21 05:52:22;;;;;;;15.38;8.60;;;;;;;;;;5011300;28;20033;-79
2023/06/21 05:54:48;;;;;;;11.35;7.93;;;;;;;;;;5010825;28;20050;-79
2023/06/21 05:57:15;;;;;;;11.38;7.93;;;;;;;;;;5010177;28;20049;-78
2023/06/21 05:59:43;;;;;;;15.52;9.75;;;;;;;;;;5000624;28;20022;-80
2023/06/21 06:02:09;;;;;;;15.63;8.57;;;;;;;;;;5007221;28;20026;-79
2023/06/21 06:04:36;;;;;;;16.10;9.80;;;;;;;;;;5007205;28;20112;-79
2023/06/21 06:07:03;;;;;;;15.25;8.68;;;;;;;;;;5011324;28;20025;-81
2023/06/21 06:09:29;;;;;;;16.10;9.25;;;;;;;;;;5007992;28;20053;-80
2023/06/21 06:11:56;;;;;;;14.70;9.80;;;;;;;;;;4991498;28;20026;-80
2023/06/21 06:14:22;;;;;;;22.48;10.82;;;;;;;;;;4994255;28;20065;-79
2023/06/21 06:16:48;;;;;;;15.27;7.40;;;;;;;;;;5001480;28;20453;-80
2023/06/21 06:19:14;;;;;;;15.90;8.27;;;;;;;;;;5011168;28;20030;-80
2023/06/21 06:21:40;;;;;;;14.77;8.73;;;;;;;;;;5011355;28;20041;-81
2023/06/21 06:24:06;;;;;;;15.40;8.20;;;;;;;;;;4984481;28;20030;-80
2023/06/21 06:26:32;;;;;;;15.93;9.65;;;;;;;;;;5011438;28;20073;-80
2023/06/21 06:28:58;;;;;;;14.02;8.48;;;;;;;;;;5011138;28;20481;-80
2023/06/21 06:31:26;;;;;;;15.52;9.15;;;;;;;;;;5008419;28;20028;-80
2023/06/21 06:33:52;;;;;;;15.00;9.07;;;;;;;;;;5003761;28;20507;-81
2023/06/21 06:36:18;;;;;;;15.07;9.10;;;;;;;;;;5001125;28;20042;-80
2023/06/21 06:38:50;;;;;;;16.83;10.10;;;;;;;;;;5000460;28;20036;-79
2023/06/21 06:41:17;;;;;;;16.17;9.95;;;;;;;;;;5000892;28;20221;-80
2023/06/21 06:43:43;;;;;;;13.40;8.38;;;;;;;;;;5011066;28;20431;-80
2023/06/21 06:46:09;;;;;;;16.95;9.40;;;;;;;;;;5010822;28;20493;-79
2023/06/21 06:48:36;;;;;;;14.18;8.77;;;;;;;;;;5001800;28;20224;-80
2023/06/21 06:51:02;;;;;;;13.23;8.40;;;;;;;;;;5010741;28;20030;-79
2023/06/21 06:53:28;;;;;;;11.15;7.53;;;;;;;;;;4995269;28;20120;-80
2023/06/21 06:55:55;;;;;;;12.13;7.32;;;;;;;;;;5010784;28;20030;-79
2023/06/21 06:58:21;;;;;;;11.73;8.00;;;;;;;;;;5007896;28;20022;-79
2023/06/21 07:00:48;;;;;;;14.98;7.90;;;;;;;;;;4999871;28;20244;-79
2023/06/21 07:03:14;;;;;;;13.45;8.45;;;;;;;;;;5004898;28;20080;-78
2023/06/21 07:05:46;;;;;;;15.13;8.13;;;;;;;;;;5008730;28;20053;-83
2023/06/21 07:08:12;;;;;;;13.93;7.53;;;;;;;;;;5005449;28;20388;-82
2023/06/21 07:10:38;;;;;;;14.05;7.75;;;;;;;;;;5008594;28;20029;-76
2023/06/21 07:13:04;;;;;;;10.85;7.60;;;;;;;;;;5004070;28;20049;-79
2023/06/21 07:15:30;;;;;;;12.95;7.22;;;;;;;;;;5002420;28;20105;-78
2023/06/21 07:17:56;;;;;;;9.35;6.25;;;;;;;;;;5003295;28;20029;-77
2023/06/21 07:20:22;;;;;;;12.93;7.38;;;;;;;;;;5008852;28;20541;-79
2023/06/21 07:22:48;;;;;;;12.55;7.35;;;;;;;;;;5002554;28;20030;-79
2023/06/21 07:25:17;;;;;;;10.40;6.75;;;;;;;;;;4999479;28;20041;-78
2023/06/21 07:27:43;;;;;;;12.88;7.65;;;;;;;;;;5002948;28;20033;-80
2023/06/21 07:30:09;;;;;;;12.02;7.05;;;;;;;;;;4991310;28;20026;-79
2023/06/21 07:32:35;;;;;;;11.65;7.03;;;;;;;;;;4998436;28;20037;-77
2023/06/21 07:35:02;;;;;;;11.00;6.60;;;;;;;;;;4999872;28;20045;-79
2023/06/21 07:37:28;;;;;;;9.88;6.03;;;;;;;;;;4994578;28;20042;-80
2023/06/21 07:39:55;;;;;;;9.07;6.03;;;;;;;;;;4977122;28;20037;-77
2023/06/21 07:42:23;;;;;;;12.52;6.75;;;;;;;;;;5008584;28;20092;-78
2023/06/21 07:44:50;;;;;;;9.45;6.63;;;;;;;;;;5006474;28;20045;-78
2023/06/21 07:47:17;;;;;;;11.45;6.90;;;;;;;;;;5004542;28;20030;-78
2023/06/21 07:49:43;;;;;;;7.32;5.80;;;;;;;;;;5005892;28;20550;-78
2023/06/21 07:52:10;;;;;;;10.50;5.90;;;;;;;;;;5006227;28;20108;-78
2023/06/21 07:54:36;;;;;;;12.50;6.03;;;;;;;;;;4999737;28;20093;-78
2023/06/21 07:57:02;;;;;;;8.55;5.72;;;;;;;;;;5004136;28;20034;-79
2023/06/21 07:59:28;;;;;;;8.52;5.22;;;;;;;;;;5021978;28;20045;-79
2023/06/21 08:01:54;;;;;;;10.07;6.20;;;;;;;;;;4992702;28;20026;-78
2023/06/21 08:04:20;;;;;;;9.65;6.07;;;;;;;;;;4994713;28;20038;-77
2023/06/21 08:06:46;;;;;;;9.10;5.18;;;;;;;;;;4974757;28;20096;-79
2023/06/21 08:09:12;;;;;;;8.82;5.47;;;;;;;;;;4994206;28;20018;-79
2023/06/21 08:11:38;;;;;;;8.57;5.70;;;;;;;;;;5000343;28;20020;-79
2023/06/21 08:14:04;;;;;;;8.65;5.65;;;;;;;;;;4992331;28;20038;-78
2023/06/21 08:16:31;;;;;;;7.82;5.05;;;;;;;;;;5004016;28;20029;-78
2023/06/21 08:18:57;;;;;;;10.50;5.63;;;;;;;;;;5007238;28;20036;-78
2023/06/21 08:21:23;;;;;;;8.85;5.13;;;;;;;;;;4995527;28;20026;-79
2023/06/21 08:23:49;;;;;;;7.55;4.78;;;;;;;;;;5000975;28;20037;-80
2023/06/21 08:26:15;;;;;;;7.82;4.93;;;;;;;;;;5008169;28;20029;-79
2023/06/21 08:28:41;;;;;;;8.35;5.38;;;;;;;;;;5002510;28;20462;-79
2023/06/21 08:31:06;;;;;;;7.25;4.90;;;;;;;;;;5009161;28;20022;-80
2023/06/21 08:33:32;;;;;;;7.72;4.90;;;;;;;;;;5009462;28;20033;-80
2023/06/21 08:35:58;;;;;;;8.20;4.95;;;;;;;;;;5008895;28;20034;-80
2023/06/21 08:38:24;;;;;;;6.80;4.68;;;;;;;;;;5004233;28;20033;-79
2023/06/21 08:40:50;;;;;;;8.13;4.63;;;;;;;;;;5008455;28;20492;-79
2023/06/21 08:43:16;;;;;;;7.10;4.53;;;;;;;;;;5008743;28;20499;-79
2023/06/21 08:45:42;;;;;;;7.72;5.07;;;;;;;;;;5009052;28;20026;-79
2023/06/21 08:48:08;;;;;;;7.55;4.85;;;;;;;;;;5006243;28;20022;-80
2023/06/21 08:50:35;;;;;;;9.30;4.53;;;;;;;;;;4979813;28;20034;-80
2023/06/21 08:53:05;;;;;;;7.15;4.78;;;;;;;;;;5000725;28;20477;-81
2023/06/21 08:55:32;;;;;;;6.80;4.65;;;;;;;;;;5008569;28;20034;-82
2023/06/21 08:58:06;;;;;;;6.22;4.32;;;;;;;;;;5008570;28;20018;-81
2023/06/21 09:00:34;;;;;;;7.93;5.10;;;;;;;;;;5009140;28;20110;-81
2023/06/21 09:03:06;;;;;;;5.55;3.70;;;;;;;;;;5007484;28;20022;-81
2023/06/21 09:05:32;;;;;;;6.50;4.55;;;;;;;;;;5006823;28;20121;-82
2023/06/21 09:07:59;;;;;;;6.50;4.25;;;;;;;;;;5012619;28;20049;-81
2023/06/21 09:10:27;;;;;;;7.38;4.72;;;;;;;;;;5013053;28;20028;-80
2023/06/21 09:12:54;;;;;;;7.28;4.60;;;;;;;;;;5013106;28;20032;-81
2023/06/21 09:15:20;;;;;;;9.27;4.97;;;;;;;;;;4991506;28;20133;-81
2023/06/21 09:17:47;;;;;;;7.32;4.32;;;;;;;;;;5003066;28;20547;-81
2023/06/21 09:20:13;;;;;;;7.45;4.22;;;;;;;;;;5012599;28;20022;-80
2023/06/21 09:22:39;;;;;;;5.45;3.88;;;;;;;;;;4994636;28;20006;-81
2023/06/21 09:25:05;;;;;;;6.00;4.03;;;;;;;;;;5012749;28;20044;-80
2023/06/21 09:27:31;;;;;;;6.10;4.18;;;;;;;;;;5010114;28;20030;-81
2023/06/21 09:29:57;;;;;;;6.28;3.65;;;;;;;;;;5000274;28;20092;-80
2023/06/21 09:32:23;;;;;;;5.53;3.75;;;;;;;;;;4993977;28;20121;-80
2023/06/21 09:34:49;;;;;;;5.68;3.90;;;;;;;;;;5012777;28;20022;-80
2023/06/21 09:37:35;;;;;;;5.72;3.72;;;;;;;;;;5009750;28;20049;-81
2023/06/21 09:40:01;;;;;;;6.35;4.18;;;;;;;;;;5012473;28;20029;-80
2023/06/21 09:42:27;;;;;;;5.95;3.85;;;;;;;;;;5011881;28;20799;-79
2023/06/21 09:44:54;;;;;;;7.15;4.10;;;;;;;;;;5012338;28;20172;-80
2023/06/21 09:47:20;;;;;;;6.53;4.03;;;;;;;;;;5010784;28;20026;-81
2023/06/21 09:49:47;;;;;;;6.95;4.40;;;;;;;;;;5007809;28;20072;-79
2023/06/21 09:52:19;;;;;;;5.30;4.07;;;;;;;;;;5012361;28;20022;-79
2023/06/21 09:54:45;;;;;;;6.07;3.80;;;;;;;;;;5011790;28;20029;-81
2023/06/21 09:57:11;;;;;;;7.53;3.70;;;;;;;;;;5012220;28;20018;-79
2023/06/21 09:59:40;;;;;;;5.43;4.05;;;;;;;;;;5000513;28;20429;-80
2023/06/21 10:02:08;;;;;;;8.20;4.15;;;;;;;;;;5020884;28;20060;-79
2023/06/21 10:04:43;;;;;;;5.65;3.70;;;;;;;;;;5015476;28;20088;-79
2023/06/21 10:07:12;;;;;;;4.68;3.92;;;;;;;;;;5012211;28;20022;-79
2023/06/21 10:09:39;;;;;;;5.30;3.40;;;;;;;;;;5009957;28;20649;-79
2023/06/21 10:12:07;;;;;;;6.45;3.90;;;;;;;;;;5011170;28;20049;-80
2023/06/21 10:14:33;;;;;;;6.47;3.67;;;;;;;;;;5010828;28;20398;-79
2023/06/21 10:16:59;;;;;;;5.07;3.45;;;;;;;;;;5011486;28;20022;-79
2023/06/21 10:19:26;;;;;;;6.07;3.70;;;;;;;;;;5007072;28;20473;-79
2023/06/21 10:21:59;;;;;;;9.07;4.05;;;;;;;;;;5011542;28;20052;-79
2023/06/21 10:24:26;;;;;;;5.53;3.60;;;;;;;;;;5011593;28;20508;-79
2023/06/21 10:26:53;;;;;;;6.35;3.65;;;;;;;;;;5011602;28;20021;-79
2023/06/21 10:29:19;;;;;;;5.05;3.63;;;;;;;;;;5005283;28;20028;-79
2023/06/21 10:31:46;;;;;;;5.35;3.42;;;;;;;;;;5011618;28;20400;-80
2023/06/21 10:34:14;;;;;;;5.18;3.47;;;;;;;;;;5002080;28;20092;-80
2023/06/21 10:36:42;;;;;;;5.65;3.17;;;;;;;;;;5011464;28;20588;-79
2023/06/21 10:39:10;;;;;;;5.18;3.05;;;;;;;;;;5009045;28;20014;-80
2023/06/21 10:41:36;;;;;;;5.75;3.75;;;;;;;;;;5010593;28;20030;-79
2023/06/21 10:44:03;;;;;;;5.40;3.28;;;;;;;;;;5011556;28;20381;-79
2023/06/21 10:46:29;;;;;;;5.50;3.20;;;;;;;;;;5000518;28;20022;-80
2023/06/21 10:48:56;;;;;;;4.25;3.30;;;;;;;;;;5011414;28;20026;-79
2023/06/21 10:51:23;;;;;;;5.68;3.30;;;;;;;;;;5010498;28;20029;-79
2023/06/21 10:53:50;;;;;;;5.22;3.67;;;;;;;;;;5011850;28;20107;-79
2023/06/21 10:56:16;;;;;;;6.18;3.78;;;;;;;;;;5005205;28;20486;-79
2023/06/21 10:58:42;;;;;;;8.20;3.67;;;;;;;;;;5010373;28;20072;-78
2023/06/21 11:01:08;;;;;;;5.20;3.35;;;;;;;;;;5010228;28;20469;-79
2023/06/21 11:03:35;;;;;;;4.80;3.50;;;;;;;;;;5010041;28;20026;-78
2023/06/21 11:06:19;;;;;;;4.63;3.35;;;;;;;;;;5009014;28;20108;-79
2023/06/21 11:08:45;;;;;;;6.35;3.10;;;;;;;;;;4999270;28;20513;-79
2023/06/21 11:11:27;;;;;;;4.72;3.25;;;;;;;;;;5009907;28;20030;-79
2023/06/21 11:13:53;;;;;;;5.10;3.42;;;;;;;;;;5010263;28;20032;-79
2023/06/21 11:16:19;;;;;;;4.32;3.30;;;;;;;;;;5009512;28;20113;-79
2023/06/21 11:18:59;;;;;;;5.47;3.60;;;;;;;;;;5003596;28;20117;-78
2023/06/21 11:21:41;;;;;;;4.75;3.42;;;;;;;;;;5009479;28;20032;-79
2023/06/21 11:24:10;;;;;;;4.55;3.00;;;;;;;;;;5008763;28;20029;-80
2023/06/21 11:26:52;;;;;;;5.00;3.50;;;;;;;;;;4995127;28;20311;-78
2023/06/21 11:29:18;;;;;;;3.70;3.13;;;;;;;;;;4996073;28;20030;-79
2023/06/21 11:31:44;;;;;;;4.70;3.05;;;;;;;;;;5001712;28;20054;-79
2023/06/21 11:34:22;;;;;;;4.88;3.53;;;;;;;;;;5009390;28;20680;-79
2023/06/21 11:36:48;;;;;;;5.63;3.72;;;;;;;;;;5009156;28;20121;-79
2023/06/21 11:39:17;;;;;;;6.53;3.35;;;;;;;;;;5007110;28;20026;-78
2023/06/21 11:41:43;;;;;;;3.78;3.10;;;;;;;;;;5009370;28;20624;-78
2023/06/21 11:44:11;;;;;;;3.85;3.15;;;;;;;;;;5009021;28;20024;-80
2023/06/21 11:46:39;;;;;;;4.78;3.35;;;;;;;;;;5009165;28;20388;-79
2023/06/21 11:49:05;;;;;;;4.93;3.40;;;;;;;;;;5009610;28;20444;-79
2023/06/21 11:51:31;;;;;;;4.32;3.40;;;;;;;;;;5006573;28;20040;-79
2023/06/21 11:53:57;;;;;;;4.78;3.10;;;;;;;;;;5010575;28;20037;-80
2023/06/21 11:56:29;;;;;;;4.90;3.30;;;;;;;;;;5010206;28;20026;-79
2023/06/21 11:58:55;;;;;;;3.85;2.65;;;;;;;;;;5003743;28;20022;-81
2023/06/21 12:01:21;;;;;;;3.70;3.03;;;;;;;;;;5004759;28;20558;-79
2023/06/21 12:03:47;;;;;;;4.00;2.78;;;;;;;;;;5013117;28;20485;-77
2023/06/21 12:06:13;;;;;;;3.75;3.00;;;;;;;;;;5009632;28;20049;-76
2023/06/21 12:08:40;;;;;;;3.45;2.92;;;;;;;;;;5007790;28;20022;-77
2023/06/21 12:11:09;;;;;;;3.88;3.05;;;;;;;;;;5001062;28;20042;-78
2023/06/21 12:13:36;;;;;;;4.60;3.33;;;;;;;;;;5000510;28;20026;-79
2023/06/21 12:16:03;;;;;;;3.90;3.08;;;;;;;;;;5006429;28;20034;-78
2023/06/21 12:18:29;;;;;;;4.00;3.42;;;;;;;;;;5006193;28;20524;-78
2023/06/21 12:20:56;;;;;;;3.72;3.30;;;;;;;;;;5000438;28;20108;-77
2023/06/21 12:23:22;;;;;;;3.72;3.08;;;;;;;;;;4997622;28;20019;-79
2023/06/21 12:25:49;;;;;;;3.28;2.72;;;;;;;;;;4993178;28;20608;-77
2023/06/21 12:28:17;;;;;;;3.65;3.03;;;;;;;;;;4993151;28;20028;-77
2023/06/21 12:30:46;;;;;;;3.65;3.00;;;;;;;;;;4994517;28;20493;-77
2023/06/21 12:33:12;;;;;;;4.10;3.00;;;;;;;;;;4995290;28;20502;-78
2023/06/21 12:35:38;;;;;;;3.17;2.50;;;;;;;;;;4977525;28;20026;-78
2023/06/21 12:38:17;;;;;;;2.78;2.47;;;;;;;;;;5009781;28;20077;-81
2023/06/21 12:40:53;;;;;;;2.67;2.47;;;;;;;;;;5004405;28;20470;-77
2023/06/21 12:43:32;;;;;;;5.15;2.90;;;;;;;;;;5004632;28;20488;-77
2023/06/21 12:45:58;;;;;;;4.90;2.90;;;;;;;;;;5010073;28;20385;-77
2023/06/21 12:48:24;;;;;;;5.22;2.85;;;;;;;;;;5005361;28;20030;-78
2023/06/21 12:50:54;;;;;;;3.25;2.95;;;;;;;;;;4997030;28;20080;-79
2023/06/21 12:53:24;;;;;;;4.25;2.70;;;;;;;;;;5001757;28;20467;-78
2023/06/21 12:55:50;;;;;;;2.97;2.65;;;;;;;;;;5007258;28;20139;-77
2023/06/21 12:58:16;;;;;;;3.53;3.03;;;;;;;;;;5003567;28;20683;-78
2023/06/21 13:00:42;;;;;;;3.42;2.80;;;;;;;;;;4998848;28;20065;-77
2023/06/21 13:03:08;;;;;;;2.83;2.50;;;;;;;;;;4994287;28;20025;-78
2023/06/21 13:05:34;;;;;;;3.63;2.63;;;;;;;;;;4999867;28;20472;-78
2023/06/21 13:08:00;;;;;;;3.60;2.58;;;;;;;;;;4994393;28;20025;-76
2023/06/21 13:10:26;;;;;;;2.50;2.10;;;;;;;;;;5009618;28;20101;-79
2023/06/21 13:12:52;;;;;;;2.92;2.33;;;;;;;;;;5009605;28;20469;-77
2023/06/21 13:15:18;;;;;;;2.78;2.47;;;;;;;;;;5009375;28;20018;-76
2023/06/21 13:17:44;;;;;;;3.83;3.00;;;;;;;;;;5001431;28;20553;-76
2023/06/21 13:20:10;;;;;;;3.67;2.67;;;;;;;;;;4992816;28;20366;-76
2023/06/21 13:22:36;;;;;;;4.68;2.53;;;;;;;;;;4995089;28;20046;-84
2023/06/21 13:25:03;;;;;;;2.95;2.30;;;;;;;;;;4998748;28;20125;-75
2023/06/21 13:27:29;;;;;;;2.83;2.03;;;;;;;;;;4995577;28;20053;-77
2023/06/21 13:29:56;;;;;;;2.97;2.40;;;;;;;;;;5003525;28;20034;-79
2023/06/21 13:32:22;;;;;;;2.63;2.33;;;;;;;;;;5009602;28;20020;-78
2023/06/21 13:34:48;;;;;;;2.95;2.20;;;;;;;;;;5009480;28;20051;-82
2023/06/21 13:37:14;;;;;;;2.88;2.35;;;;;;;;;;5003710;28;20033;-79
2023/06/21 13:39:40;;;;;;;3.25;2.08;;;;;;;;;;5002102;28;20109;-81
2023/06/21 13:42:06;;;;;;;2.30;2.10;;;;;;;;;;4999012;28;20037;-79
2023/06/21 13:44:32;;;;;;;6.25;2.30;;;;;;;;;;4997065;28;20030;-76
2023/06/21 13:46:58;;;;;;;3.35;2.55;;;;;;;;;;4999406;28;20018;-76
2023/06/21 13:49:24;;;;;;;3.53;2.20;;;;;;;;;;4999064;28;20038;-76
2023/06/21 13:51:50;;;;;;;2.42;2.08;;;;;;;;;;5005991;28;20113;-75
2023/06/21 13:54:16;;;;;;;2.30;1.95;;;;;;;;;;4999079;28;20097;-77
2023/06/21 13:56:42;;;;;;;2.80;2.15;;;;;;;;;;5010652;28;20705;-76
2023/06/21 13:59:08;;;;;;;3.10;2.47;;;;;;;;;;5006856;28;20085;-77
2023/06/21 14:01:35;;;;;;;3.15;2.40;;;;;;;;;;4996720;28;20034;-77
2023/06/21 14:04:03;;;;;;;3.35;2.38;;;;;;;;;;4998179;28;20025;-76
2023/06/21 14:06:29;;;;;;;3.22;2.15;;;;;;;;;;5019104;28;20057;-78
2023/06/21 14:08:54;;;;;;;3.30;2.13;;;;;;;;;;5011292;28;20030;-79
2023/06/21 14:11:21;;;;;;;2.90;2.33;;;;;;;;;;5006327;28;20033;-86
2023/06/21 14:13:46;;;;;;;3.47;2.33;;;;;;;;;;5009378;28;20541;-80
2023/06/21 14:16:12;;;;;;;3.25;2.00;;;;;;;;;;5010197;28;20033;-78
2023/06/21 14:18:39;;;;;;;3.15;2.13;;;;;;;;;;5006638;28;20144;-83
2023/06/21 14:21:07;;;;;;;2.88;1.92;;;;;;;;;;5002221;28;20080;-79
2023/06/21 14:23:33;;;;;;;3.35;2.40;;;;;;;;;;5018211;28;20038;-78
2023/06/21 14:25:59;;;;;;;2.10;1.80;;;;;;;;;;5002395;28;20029;-78
2023/06/21 14:28:25;;;;;;;4.18;2.72;;;;;;;;;;5016884;28;20033;-77
2023/06/21 14:30:51;;;;;;;2.35;2.03;;;;;;;;;;5012504;28;20393;-76
2023/06/21 14:33:17;;;;;;;3.35;1.98;;;;;;;;;;5009577;28;20029;-78
2023/06/21 14:35:43;;;;;;;3.03;1.83;;;;;;;;;;5008474;28;20029;-78
2023/06/21 14:38:09;;;;;;;4.95;2.55;;;;;;;;;;5007882;28;20030;-78